sensor_id;sensor_type;location;lat;lon;timestamp;P1;durP1;ratioP1;P2;durP2;ratioP2
6955;SDS011;50345;51.136;16.886;2023-03-14T00:02:02;8.60;;;5.13;;
6955;SDS011;50345;51.136;16.886;2023-03-14T00:04:28;6.20;;;4.80;;
6955;SDS011;50345;51.136;16.886;2023-03-14T00:06:53;6.77;;;4.80;;
6955;SDS011;50345;51.136;16.886;2023-03-14T00:09:19;6.13;;;4.63;;
6955;SDS011;50345;51.136;16.886;2023-03-14T00:11:44;5.77;;;5.17;;
6955;SDS011;50345;51.136;16.886;2023-03-14T00:14:10;4.85;;;4.03;;
6955;SDS011;50345;51.136;16.886;2023-03-14T00:16:36;6.15;;;4.32;;
6955;SDS011;50345;51.136;16.886;2023-03-14T00:19:02;6.30;;;4.57;;
6955;SDS011;50345;51.136;16.886;2023-03-14T00:21:27;10.37;;;3.77;;
6955;SDS011;50345;51.136;16.886;2023-03-14T00:23:53;3.73;;;3.00;;
6955;SDS011;50345;51.136;16.886;2023-03-14T00:26:20;6.57;;;4.07;;
6955;SDS011;50345;51.136;16.886;2023-03-14T00:28:46;5.50;;;4.63;;
6955;SDS011;50345;51.136;16.886;2023-03-14T00:31:13;4.90;;;3.60;;
6955;SDS011;50345;51.136;16.886;2023-03-14T00:33:40;5.03;;;4.22;;
6955;SDS011;50345;51.136;16.886;2023-03-14T00:36:08;8.38;;;4.35;;
6955;SDS011;50345;51.136;16.886;2023-03-14T00:38:35;5.32;;;3.65;;
6955;SDS011;50345;51.136;16.886;2023-03-14T00:41:05;5.82;;;3.97;;
6955;SDS011;50345;51.136;16.886;2023-03-14T00:43:31;4.18;;;3.78;;
6955;SDS011;50345;51.136;16.886;2023-03-14T00:45:57;4.60;;;3.53;;
6955;SDS011;50345;51.136;16.886;2023-03-14T00:48:23;5.10;;;4.20;;
6955;SDS011;50345;51.136;16.886;2023-03-14T00:50:48;4.83;;;4.33;;
6955;SDS011;50345;51.136;16.886;2023-03-14T00:53:14;5.67;;;4.10;;
6955;SDS011;50345;51.136;16.886;2023-03-14T00:55:41;6.30;;;4.20;;
6955;SDS011;50345;51.136;16.886;2023-03-14T00:58:08;4.80;;;4.20;;
6955;SDS011;50345;51.136;16.886;2023-03-14T01:00:35;3.97;;;3.50;;
6955;SDS011;50345;51.136;16.886;2023-03-14T01:03:01;3.90;;;3.60;;
6955;SDS011;50345;51.136;16.886;2023-03-14T01:05:27;7.87;;;4.00;;
6955;SDS011;50345;51.136;16.886;2023-03-14T01:07:53;5.18;;;4.60;;
6955;SDS011;50345;51.136;16.886;2023-03-14T01:10:19;6.60;;;5.20;;
6955;SDS011;50345;51.136;16.886;2023-03-14T01:12:44;6.00;;;5.20;;
6955;SDS011;50345;51.136;16.886;2023-03-14T01:15:10;5.13;;;4.10;;
6955;SDS011;50345;51.136;16.886;2023-03-14T01:17:36;6.40;;;4.83;;
6955;SDS011;50345;51.136;16.886;2023-03-14T01:20:03;5.63;;;4.53;;
6955;SDS011;50345;51.136;16.886;2023-03-14T01:22:29;4.63;;;4.22;;
6955;SDS011;50345;51.136;16.886;2023-03-14T01:24:55;9.43;;;4.17;;
6955;SDS011;50345;51.136;16.886;2023-03-14T01:27:21;4.67;;;4.10;;
6955;SDS011;50345;51.136;16.886;2023-03-14T01:29:46;7.03;;;4.33;;
6955;SDS011;50345;51.136;16.886;2023-03-14T01:32:12;5.30;;;4.80;;
6955;SDS011;50345;51.136;16.886;2023-03-14T01:34:38;9.17;;;5.20;;
6955;SDS011;50345;51.136;16.886;2023-03-14T01:37:03;9.20;;;6.07;;
6955;SDS011;50345;51.136;16.886;2023-03-14T01:39:29;12.00;;;4.87;;
6955;SDS011;50345;51.136;16.886;2023-03-14T01:41:54;7.50;;;5.57;;
6955;SDS011;50345;51.136;16.886;2023-03-14T01:44:20;6.37;;;5.30;;
6955;SDS011;50345;51.136;16.886;2023-03-14T01:46:46;8.13;;;5.27;;
6955;SDS011;50345;51.136;16.886;2023-03-14T01:49:13;5.57;;;5.03;;
6955;SDS011;50345;51.136;16.886;2023-03-14T01:57:01;9.57;;;7.35;;
6955;SDS011;50345;51.136;16.886;2023-03-14T01:59:29;9.15;;;5.65;;
6955;SDS011;50345;51.136;16.886;2023-03-14T02:01:56;6.45;;;5.03;;
6955;SDS011;50345;51.136;16.886;2023-03-14T02:04:22;5.78;;;5.25;;
6955;SDS011;50345;51.136;16.886;2023-03-14T02:06:50;6.80;;;4.43;;
6955;SDS011;50345;51.136;16.886;2023-03-14T02:09:21;6.35;;;5.00;;
6955;SDS011;50345;51.136;16.886;2023-03-14T02:11:47;6.55;;;5.05;;
6955;SDS011;50345;51.136;16.886;2023-03-14T02:14:17;6.63;;;5.35;;
6955;SDS011;50345;51.136;16.886;2023-03-14T02:16:50;5.97;;;4.65;;
6955;SDS011;50345;51.136;16.886;2023-03-14T02:19:17;5.05;;;4.63;;
6955;SDS011;50345;51.136;16.886;2023-03-14T02:22:08;5.93;;;5.40;;
6955;SDS011;50345;51.136;16.886;2023-03-14T02:24:39;5.80;;;5.28;;
6955;SDS011;50345;51.136;16.886;2023-03-14T02:27:15;8.13;;;5.95;;
6955;SDS011;50345;51.136;16.886;2023-03-14T02:30:02;5.35;;;4.57;;
6955;SDS011;50345;51.136;16.886;2023-03-14T02:32:34;6.28;;;5.20;;
6955;SDS011;50345;51.136;16.886;2023-03-14T02:35:04;5.22;;;4.72;;
6955;SDS011;50345;51.136;16.886;2023-03-14T02:37:38;5.47;;;4.70;;
6955;SDS011;50345;51.136;16.886;2023-03-14T02:40:09;5.68;;;4.60;;
6955;SDS011;50345;51.136;16.886;2023-03-14T02:42:35;6.13;;;5.32;;
6955;SDS011;50345;51.136;16.886;2023-03-14T02:47:36;5.30;;;4.78;;
6955;SDS011;50345;51.136;16.886;2023-03-14T02:50:08;6.18;;;3.85;;
6955;SDS011;50345;51.136;16.886;2023-03-14T02:52:36;5.60;;;4.70;;
6955;SDS011;50345;51.136;16.886;2023-03-14T02:55:02;5.10;;;4.20;;
6955;SDS011;50345;51.136;16.886;2023-03-14T02:57:28;5.20;;;4.38;;
6955;SDS011;50345;51.136;16.886;2023-03-14T02:59:54;5.37;;;4.33;;
6955;SDS011;50345;51.136;16.886;2023-03-14T03:02:24;6.47;;;4.32;;
6955;SDS011;50345;51.136;16.886;2023-03-14T03:04:49;4.97;;;4.47;;
6955;SDS011;50345;51.136;16.886;2023-03-14T03:07:15;5.20;;;4.70;;
6955;SDS011;50345;51.136;16.886;2023-03-14T03:09:41;6.25;;;4.53;;
6955;SDS011;50345;51.136;16.886;2023-03-14T03:12:07;5.07;;;4.03;;
6955;SDS011;50345;51.136;16.886;2023-03-14T03:14:32;7.67;;;4.70;;
6955;SDS011;50345;51.136;16.886;2023-03-14T03:16:58;6.00;;;4.13;;
6955;SDS011;50345;51.136;16.886;2023-03-14T03:19:23;6.33;;;4.10;;
6955;SDS011;50345;51.136;16.886;2023-03-14T03:21:49;5.37;;;4.37;;
6955;SDS011;50345;51.136;16.886;2023-03-14T03:24:14;5.27;;;4.63;;
6955;SDS011;50345;51.136;16.886;2023-03-14T03:26:40;4.83;;;4.40;;
6955;SDS011;50345;51.136;16.886;2023-03-14T03:29:06;4.30;;;3.33;;
6955;SDS011;50345;51.136;16.886;2023-03-14T03:31:31;4.60;;;4.10;;
6955;SDS011;50345;51.136;16.886;2023-03-14T03:33:57;8.00;;;4.10;;
6955;SDS011;50345;51.136;16.886;2023-03-14T03:36:23;4.83;;;4.07;;
6955;SDS011;50345;51.136;16.886;2023-03-14T03:38:50;5.85;;;3.72;;
6955;SDS011;50345;51.136;16.886;2023-03-14T03:41:15;4.33;;;4.03;;
6955;SDS011;50345;51.136;16.886;2023-03-14T03:43:41;4.20;;;3.60;;
6955;SDS011;50345;51.136;16.886;2023-03-14T03:46:07;4.90;;;3.77;;
6955;SDS011;50345;51.136;16.886;2023-03-14T03:48:33;5.73;;;3.73;;
6955;SDS011;50345;51.136;16.886;2023-03-14T03:50:59;5.28;;;3.95;;
6955;SDS011;50345;51.136;16.886;2023-03-14T03:53:25;4.83;;;4.13;;
6955;SDS011;50345;51.136;16.886;2023-03-14T03:55:50;4.70;;;3.90;;
6955;SDS011;50345;51.136;16.886;2023-03-14T03:58:16;9.73;;;4.60;;
6955;SDS011;50345;51.136;16.886;2023-03-14T04:00:41;3.37;;;3.07;;
6955;SDS011;50345;51.136;16.886;2023-03-14T04:03:07;5.60;;;3.50;;
6955;SDS011;50345;51.136;16.886;2023-03-14T04:05:33;5.90;;;4.20;;
6955;SDS011;50345;51.136;16.886;2023-03-14T04:07:59;3.38;;;3.08;;
6955;SDS011;50345;51.136;16.886;2023-03-14T04:10:25;4.60;;;3.50;;
6955;SDS011;50345;51.136;16.886;2023-03-14T04:12:50;4.40;;;3.50;;
6955;SDS011;50345;51.136;16.886;2023-03-14T04:15:17;6.22;;;3.78;;
6955;SDS011;50345;51.136;16.886;2023-03-14T04:17:42;6.20;;;4.00;;
6955;SDS011;50345;51.136;16.886;2023-03-14T04:20:08;5.03;;;3.70;;
6955;SDS011;50345;51.136;16.886;2023-03-14T04:22:38;5.60;;;4.05;;
6955;SDS011;50345;51.136;16.886;2023-03-14T04:25:04;4.47;;;3.55;;
6955;SDS011;50345;51.136;16.886;2023-03-14T04:27:30;6.15;;;3.58;;
6955;SDS011;50345;51.136;16.886;2023-03-14T04:29:56;6.03;;;3.30;;
6955;SDS011;50345;51.136;16.886;2023-03-14T04:32:22;7.10;;;4.10;;
6955;SDS011;50345;51.136;16.886;2023-03-14T04:34:47;5.70;;;3.40;;
6955;SDS011;50345;51.136;16.886;2023-03-14T04:37:13;6.20;;;4.37;;
6955;SDS011;50345;51.136;16.886;2023-03-14T04:39:39;5.47;;;4.40;;
6955;SDS011;50345;51.136;16.886;2023-03-14T04:42:04;5.40;;;4.43;;
6955;SDS011;50345;51.136;16.886;2023-03-14T04:44:30;8.93;;;3.65;;
6955;SDS011;50345;51.136;16.886;2023-03-14T04:46:56;3.90;;;3.60;;
6955;SDS011;50345;51.136;16.886;2023-03-14T04:49:21;4.87;;;3.73;;
6955;SDS011;50345;51.136;16.886;2023-03-14T04:51:47;5.67;;;3.73;;
6955;SDS011;50345;51.136;16.886;2023-03-14T04:54:15;6.85;;;3.58;;
6955;SDS011;50345;51.136;16.886;2023-03-14T04:56:41;4.07;;;3.67;;
6955;SDS011;50345;51.136;16.886;2023-03-14T04:59:06;5.87;;;3.30;;
6955;SDS011;50345;51.136;16.886;2023-03-14T05:01:33;4.35;;;3.78;;
6955;SDS011;50345;51.136;16.886;2023-03-14T05:03:58;4.10;;;3.70;;
6955;SDS011;50345;51.136;16.886;2023-03-14T05:06:24;4.47;;;3.87;;
6955;SDS011;50345;51.136;16.886;2023-03-14T05:08:50;5.30;;;3.60;;
6955;SDS011;50345;51.136;16.886;2023-03-14T05:11:16;5.23;;;4.13;;
6955;SDS011;50345;51.136;16.886;2023-03-14T05:13:42;5.15;;;4.05;;
6955;SDS011;50345;51.136;16.886;2023-03-14T05:16:09;6.07;;;3.30;;
6955;SDS011;50345;51.136;16.886;2023-03-14T05:18:35;5.13;;;3.20;;
6955;SDS011;50345;51.136;16.886;2023-03-14T05:21:01;5.40;;;3.67;;
6955;SDS011;50345;51.136;16.886;2023-03-14T05:23:28;6.30;;;4.80;;
6955;SDS011;50345;51.136;16.886;2023-03-14T05:25:53;4.83;;;3.67;;
6955;SDS011;50345;51.136;16.886;2023-03-14T05:28:19;4.80;;;3.90;;
6955;SDS011;50345;51.136;16.886;2023-03-14T05:30:45;4.67;;;4.00;;
6955;SDS011;50345;51.136;16.886;2023-03-14T05:33:11;7.80;;;3.90;;
6955;SDS011;50345;51.136;16.886;2023-03-14T05:35:37;5.10;;;3.90;;
6955;SDS011;50345;51.136;16.886;2023-03-14T05:38:02;5.43;;;4.53;;
6955;SDS011;50345;51.136;16.886;2023-03-14T05:40:28;8.13;;;4.00;;
6955;SDS011;50345;51.136;16.886;2023-03-14T05:42:53;4.67;;;3.90;;
6955;SDS011;50345;51.136;16.886;2023-03-14T05:45:19;6.97;;;4.87;;
6955;SDS011;50345;51.136;16.886;2023-03-14T05:47:44;5.80;;;3.93;;
6955;SDS011;50345;51.136;16.886;2023-03-14T05:50:10;6.60;;;4.17;;
6955;SDS011;50345;51.136;16.886;2023-03-14T05:52:36;16.37;;;10.43;;
6955;SDS011;50345;51.136;16.886;2023-03-14T05:55:01;19.73;;;13.50;;
6955;SDS011;50345;51.136;16.886;2023-03-14T05:57:28;22.45;;;11.02;;
6955;SDS011;50345;51.136;16.886;2023-03-14T05:59:53;16.67;;;9.80;;
6955;SDS011;50345;51.136;16.886;2023-03-14T06:02:19;13.50;;;7.10;;
6955;SDS011;50345;51.136;16.886;2023-03-14T06:04:44;12.00;;;8.20;;
6955;SDS011;50345;51.136;16.886;2023-03-14T06:07:10;14.07;;;8.00;;
6955;SDS011;50345;51.136;16.886;2023-03-14T06:09:36;6.67;;;5.30;;
6955;SDS011;50345;51.136;16.886;2023-03-14T06:12:01;8.97;;;6.30;;
6955;SDS011;50345;51.136;16.886;2023-03-14T06:14:28;8.63;;;7.40;;
6955;SDS011;50345;51.136;16.886;2023-03-14T06:16:53;10.33;;;7.20;;
6955;SDS011;50345;51.136;16.886;2023-03-14T06:19:19;6.20;;;5.60;;
6955;SDS011;50345;51.136;16.886;2023-03-14T06:21:44;8.63;;;4.30;;
6955;SDS011;50345;51.136;16.886;2023-03-14T06:24:10;4.83;;;4.43;;
6955;SDS011;50345;51.136;16.886;2023-03-14T06:26:36;5.60;;;5.07;;
6955;SDS011;50345;51.136;16.886;2023-03-14T06:29:01;9.83;;;5.47;;
6955;SDS011;50345;51.136;16.886;2023-03-14T06:31:29;7.93;;;6.10;;
6955;SDS011;50345;51.136;16.886;2023-03-14T06:33:55;8.40;;;6.45;;
6955;SDS011;50345;51.136;16.886;2023-03-14T06:36:21;8.43;;;7.40;;
6955;SDS011;50345;51.136;16.886;2023-03-14T06:38:46;11.93;;;10.93;;
6955;SDS011;50345;51.136;16.886;2023-03-14T06:41:12;9.93;;;8.93;;
6955;SDS011;50345;51.136;16.886;2023-03-14T06:43:38;12.87;;;10.10;;
6955;SDS011;50345;51.136;16.886;2023-03-14T06:46:03;11.73;;;8.33;;
6955;SDS011;50345;51.136;16.886;2023-03-14T06:48:29;22.27;;;13.20;;
6955;SDS011;50345;51.136;16.886;2023-03-14T06:50:55;11.53;;;8.10;;
6955;SDS011;50345;51.136;16.886;2023-03-14T06:53:20;9.53;;;8.53;;
6955;SDS011;50345;51.136;16.886;2023-03-14T06:55:46;8.73;;;7.83;;
6955;SDS011;50345;51.136;16.886;2023-03-14T06:58:12;5.80;;;5.20;;
6955;SDS011;50345;51.136;16.886;2023-03-14T07:00:37;7.07;;;6.13;;
6955;SDS011;50345;51.136;16.886;2023-03-14T07:03:03;8.30;;;5.60;;
6955;SDS011;50345;51.136;16.886;2023-03-14T07:05:29;7.33;;;6.63;;
6955;SDS011;50345;51.136;16.886;2023-03-14T07:07:54;8.27;;;6.33;;
6955;SDS011;50345;51.136;16.886;2023-03-14T07:10:20;5.82;;;5.22;;
6955;SDS011;50345;51.136;16.886;2023-03-14T07:12:46;5.30;;;4.80;;
6955;SDS011;50345;51.136;16.886;2023-03-14T07:15:12;7.13;;;5.60;;
6955;SDS011;50345;51.136;16.886;2023-03-14T07:17:37;12.00;;;7.30;;
6955;SDS011;50345;51.136;16.886;2023-03-14T07:20:03;14.17;;;8.40;;
6955;SDS011;50345;51.136;16.886;2023-03-14T07:22:29;17.95;;;9.82;;
6955;SDS011;50345;51.136;16.886;2023-03-14T07:24:55;10.88;;;6.50;;
6955;SDS011;50345;51.136;16.886;2023-03-14T07:27:21;7.50;;;6.03;;
6955;SDS011;50345;51.136;16.886;2023-03-14T07:29:46;6.50;;;4.70;;
6955;SDS011;50345;51.136;16.886;2023-03-14T07:32:12;6.50;;;4.70;;
6955;SDS011;50345;51.136;16.886;2023-03-14T07:34:40;3.90;;;3.50;;
6955;SDS011;50345;51.136;16.886;2023-03-14T07:37:06;9.00;;;4.18;;
6955;SDS011;50345;51.136;16.886;2023-03-14T07:39:32;5.83;;;4.70;;
6955;SDS011;50345;51.136;16.886;2023-03-14T07:41:58;5.97;;;4.67;;
6955;SDS011;50345;51.136;16.886;2023-03-14T07:44:23;5.70;;;4.50;;
6955;SDS011;50345;51.136;16.886;2023-03-14T07:46:49;5.80;;;4.90;;
6955;SDS011;50345;51.136;16.886;2023-03-14T07:49:14;7.73;;;4.87;;
6955;SDS011;50345;51.136;16.886;2023-03-14T07:51:40;7.80;;;4.37;;
6955;SDS011;50345;51.136;16.886;2023-03-14T07:54:06;4.40;;;4.00;;
6955;SDS011;50345;51.136;16.886;2023-03-14T07:56:31;5.30;;;4.50;;
6955;SDS011;50345;51.136;16.886;2023-03-14T07:58:57;4.57;;;4.07;;
6955;SDS011;50345;51.136;16.886;2023-03-14T08:01:23;7.20;;;4.40;;
6955;SDS011;50345;51.136;16.886;2023-03-14T08:03:48;6.43;;;4.57;;
6955;SDS011;50345;51.136;16.886;2023-03-14T08:06:14;5.27;;;4.50;;
6955;SDS011;50345;51.136;16.886;2023-03-14T08:08:40;6.90;;;4.30;;
6955;SDS011;50345;51.136;16.886;2023-03-14T08:11:06;4.10;;;3.80;;
6955;SDS011;50345;51.136;16.886;2023-03-14T08:13:37;5.55;;;4.07;;
6955;SDS011;50345;51.136;16.886;2023-03-14T08:16:04;4.47;;;4.07;;
6955;SDS011;50345;51.136;16.886;2023-03-14T08:18:30;4.87;;;3.67;;
6955;SDS011;50345;51.136;16.886;2023-03-14T08:20:55;5.20;;;4.17;;
6955;SDS011;50345;51.136;16.886;2023-03-14T08:23:21;5.20;;;3.80;;
6955;SDS011;50345;51.136;16.886;2023-03-14T08:25:50;6.67;;;3.90;;
6955;SDS011;50345;51.136;16.886;2023-03-14T08:28:17;3.97;;;3.42;;
6955;SDS011;50345;51.136;16.886;2023-03-14T08:30:43;4.30;;;3.83;;
6955;SDS011;50345;51.136;16.886;2023-03-14T08:33:09;4.20;;;3.77;;
6955;SDS011;50345;51.136;16.886;2023-03-14T08:35:34;4.70;;;4.30;;
6955;SDS011;50345;51.136;16.886;2023-03-14T08:38:00;8.67;;;3.97;;
6955;SDS011;50345;51.136;16.886;2023-03-14T08:40:26;3.17;;;2.70;;
6955;SDS011;50345;51.136;16.886;2023-03-14T08:42:52;4.70;;;3.80;;
6955;SDS011;50345;51.136;16.886;2023-03-14T08:45:17;5.75;;;4.18;;
6955;SDS011;50345;51.136;16.886;2023-03-14T08:47:43;5.83;;;4.13;;
6955;SDS011;50345;51.136;16.886;2023-03-14T08:50:09;4.18;;;2.90;;
6955;SDS011;50345;51.136;16.886;2023-03-14T08:52:36;6.22;;;3.70;;
6955;SDS011;50345;51.136;16.886;2023-03-14T08:55:03;4.90;;;3.58;;
6955;SDS011;50345;51.136;16.886;2023-03-14T08:57:29;6.03;;;5.13;;
6955;SDS011;50345;51.136;16.886;2023-03-14T08:59:55;5.30;;;3.70;;
6955;SDS011;50345;51.136;16.886;2023-03-14T09:02:22;6.65;;;4.50;;
6955;SDS011;50345;51.136;16.886;2023-03-14T09:04:49;6.47;;;4.90;;
6955;SDS011;50345;51.136;16.886;2023-03-14T09:07:15;6.22;;;4.60;;
6955;SDS011;50345;51.136;16.886;2023-03-14T09:09:41;5.27;;;4.30;;
6955;SDS011;50345;51.136;16.886;2023-03-14T09:12:06;4.23;;;3.83;;
6955;SDS011;50345;51.136;16.886;2023-03-14T09:14:32;5.03;;;4.53;;
6955;SDS011;50345;51.136;16.886;2023-03-14T09:16:57;4.90;;;3.40;;
6955;SDS011;50345;51.136;16.886;2023-03-14T09:19:23;4.93;;;3.60;;
6955;SDS011;50345;51.136;16.886;2023-03-14T09:21:49;5.23;;;3.90;;
6955;SDS011;50345;51.136;16.886;2023-03-14T09:24:15;4.83;;;3.90;;
6955;SDS011;50345;51.136;16.886;2023-03-14T09:26:41;5.07;;;4.30;;
6955;SDS011;50345;51.136;16.886;2023-03-14T09:29:07;4.00;;;3.60;;
6955;SDS011;50345;51.136;16.886;2023-03-14T09:31:32;4.10;;;3.67;;
6955;SDS011;50345;51.136;16.886;2023-03-14T09:33:58;4.27;;;3.87;;
6955;SDS011;50345;51.136;16.886;2023-03-14T09:36:24;5.90;;;3.90;;
6955;SDS011;50345;51.136;16.886;2023-03-14T09:38:49;5.73;;;4.10;;
6955;SDS011;50345;51.136;16.886;2023-03-14T09:41:37;5.93;;;4.77;;
6955;SDS011;50345;51.136;16.886;2023-03-14T09:44:04;4.72;;;3.67;;
6955;SDS011;50345;51.136;16.886;2023-03-14T09:46:34;6.75;;;4.70;;
6955;SDS011;50345;51.136;16.886;2023-03-14T09:49:01;5.95;;;5.38;;
6955;SDS011;50345;51.136;16.886;2023-03-14T09:51:28;6.57;;;4.50;;
6955;SDS011;50345;51.136;16.886;2023-03-14T09:53:54;4.75;;;4.18;;
6955;SDS011;50345;51.136;16.886;2023-03-14T09:56:24;7.93;;;4.90;;
6955;SDS011;50345;51.136;16.886;2023-03-14T09:58:56;5.60;;;4.05;;
6955;SDS011;50345;51.136;16.886;2023-03-14T10:01:28;4.72;;;4.13;;
6955;SDS011;50345;51.136;16.886;2023-03-14T10:03:56;7.63;;;4.03;;
6955;SDS011;50345;51.136;16.886;2023-03-14T10:06:29;6.70;;;5.50;;
6955;SDS011;50345;51.136;16.886;2023-03-14T10:08:55;4.72;;;4.28;;
6955;SDS011;50345;51.136;16.886;2023-03-14T10:11:21;7.05;;;4.70;;
6955;SDS011;50345;51.136;16.886;2023-03-14T10:16:28;6.47;;;4.63;;
6955;SDS011;50345;51.136;16.886;2023-03-14T10:19:00;8.95;;;4.60;;
6955;SDS011;50345;51.136;16.886;2023-03-14T10:21:28;7.43;;;4.75;;
6955;SDS011;50345;51.136;16.886;2023-03-14T10:23:55;5.65;;;4.35;;
6955;SDS011;50345;51.136;16.886;2023-03-14T10:26:47;5.88;;;4.20;;
6955;SDS011;50345;51.136;16.886;2023-03-14T10:29:14;5.10;;;4.60;;
6955;SDS011;50345;51.136;16.886;2023-03-14T10:31:54;6.38;;;4.75;;
6955;SDS011;50345;51.136;16.886;2023-03-14T10:34:33;6.18;;;4.43;;
6955;SDS011;50345;51.136;16.886;2023-03-14T10:39:53;4.63;;;4.22;;
6955;SDS011;50345;51.136;16.886;2023-03-14T10:44:57;4.57;;;3.30;;
6955;SDS011;50345;51.136;16.886;2023-03-14T10:47:25;5.05;;;4.03;;
6955;SDS011;50345;51.136;16.886;2023-03-14T10:49:53;3.97;;;3.45;;
6955;SDS011;50345;51.136;16.886;2023-03-14T10:55:03;4.25;;;3.67;;
6955;SDS011;50345;51.136;16.886;2023-03-14T10:57:38;5.35;;;3.67;;
6955;SDS011;50345;51.136;16.886;2023-03-14T11:00:05;7.38;;;3.90;;
6955;SDS011;50345;51.136;16.886;2023-03-14T11:05:57;6.47;;;5.05;;
6955;SDS011;50345;51.136;16.886;2023-03-14T11:08:34;4.60;;;4.20;;
6955;SDS011;50345;51.136;16.886;2023-03-14T11:11:19;5.57;;;5.07;;
6955;SDS011;50345;51.136;16.886;2023-03-14T11:14:06;5.00;;;3.78;;
6955;SDS011;50345;51.136;16.886;2023-03-14T11:17:00;4.28;;;3.55;;
6955;SDS011;50345;51.136;16.886;2023-03-14T11:25:11;4.80;;;3.63;;
6955;SDS011;50345;51.136;16.886;2023-03-14T11:28:09;3.58;;;3.38;;
6955;SDS011;50345;51.136;16.886;2023-03-14T11:30:51;5.78;;;3.50;;
6955;SDS011;50345;51.136;16.886;2023-03-14T11:35:55;4.65;;;3.72;;
6955;SDS011;50345;51.136;16.886;2023-03-14T11:38:35;3.30;;;3.00;;
6955;SDS011;50345;51.136;16.886;2023-03-14T11:41:15;4.05;;;3.65;;
6955;SDS011;50345;51.136;16.886;2023-03-14T11:43:48;4.63;;;3.92;;
6955;SDS011;50345;51.136;16.886;2023-03-14T11:46:19;3.90;;;3.50;;
6955;SDS011;50345;51.136;16.886;2023-03-14T11:51:40;4.72;;;4.30;;
6955;SDS011;50345;51.136;16.886;2023-03-14T11:56:54;4.35;;;2.92;;
6955;SDS011;50345;51.136;16.886;2023-03-14T11:59:25;3.50;;;3.20;;
6955;SDS011;50345;51.136;16.886;2023-03-14T12:07:07;3.30;;;3.08;;
6955;SDS011;50345;51.136;16.886;2023-03-14T12:09:43;8.32;;;4.22;;
6955;SDS011;50345;51.136;16.886;2023-03-14T12:12:12;3.63;;;3.33;;
6955;SDS011;50345;51.136;16.886;2023-03-14T12:14:45;4.82;;;4.43;;
6955;SDS011;50345;51.136;16.886;2023-03-14T12:22:43;4.88;;;3.83;;
6955;SDS011;50345;51.136;16.886;2023-03-14T12:25:21;5.25;;;3.33;;
6955;SDS011;50345;51.136;16.886;2023-03-14T12:30:39;3.45;;;3.15;;
6955;SDS011;50345;51.136;16.886;2023-03-14T12:35:57;4.55;;;3.35;;
6955;SDS011;50345;51.136;16.886;2023-03-14T12:38:43;3.90;;;3.30;;
6955;SDS011;50345;51.136;16.886;2023-03-14T12:41:21;6.80;;;3.95;;
6955;SDS011;50345;51.136;16.886;2023-03-14T12:46:56;5.55;;;3.45;;
6955;SDS011;50345;51.136;16.886;2023-03-14T12:49:23;3.60;;;3.30;;
6955;SDS011;50345;51.136;16.886;2023-03-14T12:51:58;4.18;;;3.78;;
6955;SDS011;50345;51.136;16.886;2023-03-14T12:59:38;5.32;;;3.55;;
6955;SDS011;50345;51.136;16.886;2023-03-14T13:02:20;7.57;;;4.40;;
6955;SDS011;50345;51.136;16.886;2023-03-14T13:04:53;5.90;;;4.78;;
6955;SDS011;50345;51.136;16.886;2023-03-14T13:15:21;3.60;;;3.30;;
6955;SDS011;50345;51.136;16.886;2023-03-14T13:18:01;7.45;;;4.03;;
6955;SDS011;50345;51.136;16.886;2023-03-14T13:23:31;5.28;;;4.55;;
6955;SDS011;50345;51.136;16.886;2023-03-14T13:25:59;4.22;;;3.72;;
6955;SDS011;50345;51.136;16.886;2023-03-14T13:28:26;4.90;;;3.88;;
6955;SDS011;50345;51.136;16.886;2023-03-14T13:30:55;3.70;;;3.40;;
6955;SDS011;50345;51.136;16.886;2023-03-14T13:33:23;4.43;;;4.03;;
6955;SDS011;50345;51.136;16.886;2023-03-14T13:35:54;5.30;;;4.33;;
6955;SDS011;50345;51.136;16.886;2023-03-14T13:38:21;4.90;;;3.70;;
6955;SDS011;50345;51.136;16.886;2023-03-14T13:40:49;4.45;;;4.05;;
6955;SDS011;50345;51.136;16.886;2023-03-14T13:43:17;5.97;;;4.35;;
6955;SDS011;50345;51.136;16.886;2023-03-14T13:46:14;8.25;;;4.15;;
6955;SDS011;50345;51.136;16.886;2023-03-14T13:48:45;5.45;;;4.50;;
6955;SDS011;50345;51.136;16.886;2023-03-14T13:51:16;6.25;;;4.40;;
6955;SDS011;50345;51.136;16.886;2023-03-14T13:53:47;5.32;;;4.82;;
6955;SDS011;50345;51.136;16.886;2023-03-14T13:56:14;9.43;;;5.32;;
6955;SDS011;50345;51.136;16.886;2023-03-14T13:58:41;5.10;;;4.60;;
6955;SDS011;50345;51.136;16.886;2023-03-14T14:01:12;4.05;;;3.20;;
6955;SDS011;50345;51.136;16.886;2023-03-14T14:03:56;4.05;;;3.55;;
6955;SDS011;50345;51.136;16.886;2023-03-14T14:06:31;5.88;;;3.78;;
6955;SDS011;50345;51.136;16.886;2023-03-14T14:09:00;4.30;;;3.88;;
6955;SDS011;50345;51.136;16.886;2023-03-14T14:11:41;4.20;;;3.55;;
6955;SDS011;50345;51.136;16.886;2023-03-14T14:14:09;4.40;;;2.90;;
6955;SDS011;50345;51.136;16.886;2023-03-14T14:16:38;3.33;;;3.13;;
6955;SDS011;50345;51.136;16.886;2023-03-14T14:19:04;3.92;;;3.60;;
6955;SDS011;50345;51.136;16.886;2023-03-14T14:21:30;4.90;;;3.72;;
6955;SDS011;50345;51.136;16.886;2023-03-14T14:23:57;3.50;;;3.20;;
6955;SDS011;50345;51.136;16.886;2023-03-14T14:26:23;5.47;;;3.75;;
6955;SDS011;50345;51.136;16.886;2023-03-14T14:28:58;3.35;;;3.05;;
6955;SDS011;50345;51.136;16.886;2023-03-14T14:31:28;7.47;;;5.45;;
6955;SDS011;50345;51.136;16.886;2023-03-14T14:33:55;6.30;;;4.37;;
6955;SDS011;50345;51.136;16.886;2023-03-14T14:36:23;6.05;;;4.95;;
6955;SDS011;50345;51.136;16.886;2023-03-14T14:39:03;7.50;;;4.88;;
6955;SDS011;50345;51.136;16.886;2023-03-14T14:41:30;7.72;;;6.78;;
6955;SDS011;50345;51.136;16.886;2023-03-14T14:43:59;6.88;;;4.30;;
6955;SDS011;50345;51.136;16.886;2023-03-14T14:46:26;7.50;;;4.22;;
6955;SDS011;50345;51.136;16.886;2023-03-14T14:49:05;6.13;;;4.50;;
6955;SDS011;50345;51.136;16.886;2023-03-14T14:51:39;7.72;;;3.88;;
6955;SDS011;50345;51.136;16.886;2023-03-14T14:54:13;6.20;;;4.80;;
6955;SDS011;50345;51.136;16.886;2023-03-14T14:56:44;13.18;;;8.38;;
6955;SDS011;50345;51.136;16.886;2023-03-14T14:59:23;5.70;;;4.75;;
6955;SDS011;50345;51.136;16.886;2023-03-14T15:02:00;7.07;;;4.47;;
6955;SDS011;50345;51.136;16.886;2023-03-14T15:04:29;5.40;;;4.90;;
6955;SDS011;50345;51.136;16.886;2023-03-14T15:06:56;5.60;;;5.03;;
6955;SDS011;50345;51.136;16.886;2023-03-14T15:09:21;3.90;;;3.53;;
6955;SDS011;50345;51.136;16.886;2023-03-14T15:11:47;8.27;;;3.90;;
6955;SDS011;50345;51.136;16.886;2023-03-14T15:14:13;5.13;;;4.07;;
6955;SDS011;50345;51.136;16.886;2023-03-14T15:16:39;7.00;;;3.40;;
6955;SDS011;50345;51.136;16.886;2023-03-14T15:19:10;5.95;;;3.85;;
6955;SDS011;50345;51.136;16.886;2023-03-14T15:21:44;6.63;;;4.15;;
6955;SDS011;50345;51.136;16.886;2023-03-14T15:24:10;4.90;;;3.00;;
6955;SDS011;50345;51.136;16.886;2023-03-14T15:26:36;5.57;;;3.93;;
6955;SDS011;50345;51.136;16.886;2023-03-14T15:29:02;3.07;;;2.50;;
6955;SDS011;50345;51.136;16.886;2023-03-14T15:31:27;3.97;;;2.93;;
6955;SDS011;50345;51.136;16.886;2023-03-14T15:33:53;7.33;;;3.20;;
6955;SDS011;50345;51.136;16.886;2023-03-14T15:36:23;3.40;;;2.30;;
6955;SDS011;50345;51.136;16.886;2023-03-14T15:38:53;3.87;;;3.10;;
6955;SDS011;50345;51.136;16.886;2023-03-14T15:41:19;4.88;;;4.38;;
6955;SDS011;50345;51.136;16.886;2023-03-14T15:43:46;5.60;;;5.15;;
6955;SDS011;50345;51.136;16.886;2023-03-14T15:46:12;5.47;;;4.43;;
6955;SDS011;50345;51.136;16.886;2023-03-14T15:48:39;5.43;;;2.65;;
6955;SDS011;50345;51.136;16.886;2023-03-14T15:51:05;4.15;;;3.45;;
6955;SDS011;50345;51.136;16.886;2023-03-14T15:53:31;3.50;;;3.20;;
6955;SDS011;50345;51.136;16.886;2023-03-14T15:55:56;3.43;;;3.13;;
6955;SDS011;50345;51.136;16.886;2023-03-14T15:58:22;3.67;;;3.37;;
6955;SDS011;50345;51.136;16.886;2023-03-14T16:00:48;4.33;;;3.90;;
6955;SDS011;50345;51.136;16.886;2023-03-14T16:03:14;4.03;;;3.72;;